Miracema, Brazil
Current Conditions -  °F | °C
As of 5:00 PM on Monday 20 Oct 2014 (Local Time) from SBCP Reporting Station
Overcast Overcast  
Wind Chill: 79°   Ceiling: 9000
Heat Index: 81°   Visibility: 6mi
Dew Point: 70°   Wind: 21mph
Humidity: 74%   Direction: 180°S
Pressure: 29.91"   Gusts: NA
Location:  21.41°S, 42.2°W
Report Text: SBCP 202000Z 18018KT 9999 FEW020 OVC090 26/21 Q1013
Loading
Personal Weather Stations






























Interactive Weather Map
Tropical Storm Tracking
New forecast layout! Learn more

10-Day Weather Forecast

Advertisements
Track Severe Weather on mobile